createdAt,value
2022-08-05T04:17:12.134Z,61.91
2022-08-05T04:19:46.963Z,62.99
2022-08-05T04:22:21.394Z,62.57
2022-08-05T04:24:52.545Z,61.43
2022-08-05T04:27:32.972Z,63.08
2022-08-05T04:30:08.674Z,63.22
2022-08-05T04:32:39.023Z,63.16
2022-08-05T04:35:06.883Z,62.14
2022-08-05T04:38:02.244Z,62.06
2022-08-05T04:40:35.370Z,62.52
2022-08-05T04:43:02.159Z,63.16
2022-08-05T04:45:48.336Z,64.05
2022-08-05T04:48:27.338Z,63.16
2022-08-05T04:51:02.975Z,62.58
2022-08-05T04:53:38.866Z,63.68
2022-08-05T04:56:33.408Z,63.20
2022-08-05T04:59:00.273Z,63.29
2022-08-05T05:02:35.604Z,63.95
2022-08-05T05:04:33.554Z,64.23
2022-08-05T05:07:00.213Z,65.02
2022-08-05T05:09:28.920Z,65.19
2022-08-05T05:11:59.048Z,66.56
2022-08-05T05:14:31.926Z,66.34
2022-08-05T05:17:03.529Z,65.17
2022-08-05T05:19:37.264Z,66.47
2022-08-05T05:23:07.999Z,66.53
2022-08-05T05:26:32.932Z,65.33
2022-08-05T05:28:59.892Z,65.13
2022-08-05T05:35:24.246Z,64.22
2022-08-05T05:38:02.968Z,64.06
2022-08-05T05:40:32.047Z,64.12
2022-08-05T05:42:59.881Z,62.93
2022-08-05T05:45:29.349Z,64.58
2022-08-05T05:48:05.308Z,63.63
2022-08-05T05:50:41.299Z,64.12
2022-08-05T05:53:21.124Z,65.87
2022-08-05T05:55:51.839Z,66.17
2022-08-05T05:58:54.222Z,64.22
2022-08-05T06:01:23.446Z,64.97
2022-08-05T06:04:01.199Z,65.38
2022-08-05T06:06:31.019Z,65.20
2022-08-05T06:09:00.745Z,64.30
2022-08-05T06:11:29.000Z,65.01
2022-08-05T06:13:57.061Z,63.98
2022-08-05T06:16:28.927Z,64.44
2022-08-05T06:19:00.286Z,63.34
2022-08-05T06:21:41.751Z,62.68
2022-08-05T06:24:16.493Z,63.07
2022-08-05T06:26:51.370Z,62.16
2022-08-05T06:29:24.979Z,60.40
2022-08-05T06:32:21.032Z,59.61
2022-08-05T06:34:53.550Z,60.02
2022-08-05T06:37:56.162Z,59.19
2022-08-05T06:40:10.484Z,59.92
2022-08-05T06:42:39.899Z,59.06
2022-08-05T06:45:09.047Z,60.86
2022-08-05T06:48:36.010Z,60.18
2022-08-05T06:50:23.620Z,59.71
2022-08-05T06:53:03.560Z,59.37
2022-08-05T06:55:38.386Z,59.91
2022-08-05T06:58:20.008Z,58.79
2022-08-05T07:00:58.711Z,60.30
2022-08-05T07:03:32.319Z,60.41
2022-08-05T07:06:15.031Z,59.73
2022-08-05T07:08:47.874Z,61.40
2022-08-05T07:11:22.387Z,61.85
2022-08-05T07:14:20.689Z,62.44
2022-08-05T07:17:59.045Z,63.88
2022-08-05T07:22:37.487Z,65.39
2022-08-05T07:25:24.050Z,65.77
2022-08-05T07:28:11.679Z,64.74
2022-08-05T07:30:50.396Z,65.41
2022-08-05T07:33:36.697Z,65.69
2022-08-05T07:36:20.856Z,65.46
2022-08-05T07:38:48.906Z,66.07
2022-08-05T07:42:09.649Z,66.42
2022-08-05T07:44:33.715Z,67.82
2022-08-05T07:47:01.385Z,67.78
2022-08-05T07:49:34.437Z,66.63
2022-08-05T07:52:10.175Z,67.12
2022-08-05T07:54:38.683Z,66.00
2022-08-05T07:57:58.945Z,65.50
2022-08-05T08:00:29.403Z,65.15
2022-08-05T08:03:13.662Z,63.96
2022-08-05T08:05:49.334Z,62.46
2022-08-05T08:08:19.999Z,60.61
2022-08-05T08:10:49.018Z,59.73
2022-08-05T08:13:22.115Z,60.35
2022-08-05T08:16:35.317Z,60.82
2022-08-05T08:18:42.357Z,59.09
2022-08-05T08:21:47.956Z,58.67
2022-08-05T08:24:14.808Z,59.40
2022-08-05T08:26:41.439Z,57.34
2022-08-05T08:29:29.367Z,55.24
2022-08-05T08:31:55.503Z,55.17
2022-08-05T08:34:30.736Z,54.68
2022-08-05T08:37:56.440Z,54.07
2022-08-05T08:45:16.431Z,54.77
2022-08-05T08:48:06.055Z,54.65
2022-08-05T08:52:03.268Z,53.30
2022-08-05T08:55:14.433Z,53.21
2022-08-05T08:57:58.385Z,51.85
2022-08-05T09:00:51.504Z,51.25
2022-08-05T09:07:57.052Z,49.36
2022-08-05T09:10:27.870Z,48.66
2022-08-05T09:12:57.026Z,49.21
2022-08-05T09:15:31.139Z,49.11
2022-08-05T09:17:57.793Z,48.64
2022-08-05T09:20:37.403Z,47.90
2022-08-05T09:23:18.794Z,46.88
2022-08-05T09:26:02.078Z,47.31
2022-08-05T09:29:47.810Z,46.38
2022-08-05T09:33:22.086Z,46.29
2022-08-05T09:36:55.186Z,46.68
2022-08-05T09:39:39.495Z,46.16
2022-08-05T09:42:17.313Z,46.16
2022-08-05T09:44:56.135Z,46.25
2022-08-05T09:47:25.538Z,46.62
2022-08-05T09:50:01.567Z,46.08
2022-08-05T09:52:44.872Z,45.00
2022-08-05T09:55:57.168Z,44.57
2022-08-05T09:58:15.801Z,44.52
2022-08-05T10:00:52.396Z,43.75
2022-08-05T10:03:18.956Z,43.13
2022-08-05T10:05:47.090Z,43.69
2022-08-05T10:08:37.415Z,43.92
2022-08-05T10:11:15.759Z,43.40
2022-08-05T10:13:47.175Z,43.24
2022-08-05T10:16:42.047Z,43.73
2022-08-05T10:19:23.715Z,43.81
2022-08-05T10:21:58.965Z,44.56
2022-08-05T10:24:28.616Z,43.04
2022-08-05T10:26:56.718Z,44.29
2022-08-05T10:30:41.444Z,42.59
2022-08-05T10:32:52.605Z,43.85
2022-08-05T10:35:04.324Z,43.37
2022-08-05T10:37:40.061Z,43.87
2022-08-05T10:40:20.000Z,43.91
2022-08-05T10:43:01.209Z,44.20
2022-08-05T10:45:42.168Z,43.99
2022-08-05T10:48:33.347Z,44.35
2022-08-05T10:51:21.991Z,43.73
2022-08-05T10:54:23.079Z,42.98
2022-08-05T10:56:55.978Z,43.40
2022-08-05T11:00:03.275Z,43.90
2022-08-05T11:02:38.157Z,44.32
2022-08-05T11:05:09.498Z,44.01
2022-08-05T11:08:02.669Z,43.38
2022-08-05T11:10:33.607Z,44.10
2022-08-05T11:13:01.452Z,44.05
2022-08-05T11:16:00.642Z,44.06
2022-08-05T11:18:32.433Z,43.08
2022-08-05T11:21:02.909Z,44.48
2022-08-05T11:24:30.046Z,43.45
2022-08-05T11:27:29.025Z,42.54
2022-08-05T11:30:15.602Z,42.92
2022-08-05T11:32:42.106Z,42.77
2022-08-05T11:36:07.486Z,43.10
2022-08-05T11:38:45.989Z,41.36
2022-08-05T11:41:54.842Z,41.98
2022-08-05T11:44:11.488Z,39.56
2022-08-05T11:47:09.656Z,38.74
2022-08-05T11:49:38.910Z,38.71
2022-08-05T11:52:11.962Z,37.86
2022-08-05T11:54:40.559Z,36.69
2022-08-05T11:57:24.535Z,35.22
2022-08-05T11:59:52.292Z,36.96
2022-08-05T12:02:31.296Z,37.32
2022-08-05T12:05:06.900Z,36.78
2022-08-05T12:08:03.732Z,35.61
2022-08-05T12:10:43.244Z,39.52
2022-08-05T12:13:27.855Z,41.33
2022-08-05T12:16:19.075Z,41.97
2022-08-05T12:18:53.024Z,41.89
2022-08-05T12:21:23.943Z,41.15
2022-08-05T12:24:03.329Z,39.54
2022-08-05T12:26:54.369Z,38.30
2022-08-05T12:29:26.034Z,37.56
2022-08-05T12:32:01.826Z,37.35
2022-08-05T12:34:32.551Z,37.03
2022-08-05T12:37:07.625Z,37.44
2022-08-05T12:39:38.672Z,36.91
2022-08-05T12:42:18.137Z,38.01
2022-08-05T12:44:47.561Z,37.66
2022-08-05T12:47:30.730Z,36.04
2022-08-05T12:50:04.197Z,35.10
2022-08-05T12:52:39.150Z,34.68
2022-08-05T12:55:25.643Z,34.14
2022-08-05T12:58:48.634Z,34.30
2022-08-05T13:02:03.098Z,35.75
2022-08-05T13:03:41.475Z,35.09
2022-08-05T13:06:15.939Z,35.16
2022-08-05T13:08:50.836Z,34.71
2022-08-05T13:11:25.351Z,37.31
2022-08-05T13:14:36.072Z,37.29
2022-08-05T13:17:10.847Z,40.43
2022-08-05T13:19:40.402Z,42.69
2022-08-05T13:25:52.033Z,42.03
2022-08-05T13:28:29.737Z,43.82
2022-08-05T13:30:59.548Z,40.16
2022-08-05T13:34:23.364Z,41.01
2022-08-05T13:36:53.997Z,41.85
2022-08-05T13:40:14.394Z,43.14
2022-08-05T13:42:14.338Z,43.92
2022-08-05T13:44:45.557Z,44.81
2022-08-05T13:47:35.783Z,48.27
2022-08-05T13:50:04.402Z,51.44
2022-08-05T13:52:39.779Z,51.78
2022-08-05T13:55:09.838Z,53.40
2022-08-05T13:57:51.530Z,53.65
2022-08-05T14:00:30.792Z,54.99
2022-08-05T14:03:01.071Z,55.73
2022-08-05T14:06:04.619Z,49.18
2022-08-05T14:08:20.968Z,51.46
2022-08-05T14:11:03.078Z,49.58
2022-08-05T14:13:48.292Z,47.30
2022-08-05T14:16:16.942Z,49.46
2022-08-05T14:18:45.768Z,48.09
2022-08-05T14:22:08.321Z,45.63
2022-08-05T14:24:04.274Z,44.33
2022-08-05T14:26:36.812Z,44.41
2022-08-05T14:29:05.636Z,44.28
2022-08-05T14:32:03.778Z,44.03
2022-08-05T14:34:35.862Z,44.17
2022-08-05T14:37:15.645Z,44.85
2022-08-05T14:39:50.294Z,44.64
2022-08-05T14:42:23.604Z,44.09
2022-08-05T14:44:51.946Z,46.46
2022-08-05T14:47:58.417Z,45.34
2022-08-05T14:50:14.197Z,45.65
2022-08-05T14:52:53.584Z,46.52
2022-08-05T14:55:24.576Z,46.13
2022-08-05T14:57:54.432Z,47.04
2022-08-05T15:00:27.884Z,47.92
2022-08-05T15:02:55.193Z,47.13
2022-08-05T15:05:21.900Z,47.28
2022-08-05T15:08:06.502Z,46.92
2022-08-05T15:10:41.472Z,47.69
2022-08-05T15:13:10.048Z,48.01
2022-08-05T15:15:54.268Z,48.28
2022-08-05T15:18:22.597Z,47.42
2022-08-05T15:20:49.707Z,47.92
2022-08-05T15:23:18.086Z,46.56
2022-08-05T15:25:52.072Z,47.08
2022-08-05T15:28:19.747Z,46.74
2022-08-05T15:30:53.683Z,46.51
2022-08-05T15:33:56.863Z,46.26
2022-08-05T15:36:16.851Z,46.33
2022-08-05T15:38:44.843Z,46.32
2022-08-05T15:41:22.822Z,47.12
2022-08-05T15:44:01.135Z,46.54
2022-08-05T15:46:30.808Z,46.25
2022-08-05T15:49:00.841Z,47.60
2022-08-05T15:52:03.895Z,46.67
2022-08-05T15:54:34.871Z,47.32
2022-08-05T15:57:01.918Z,46.55
2022-08-05T15:59:28.454Z,46.26
2022-08-05T16:01:55.802Z,45.53
2022-08-05T16:04:26.085Z,45.46
2022-08-05T16:06:54.288Z,44.77
2022-08-05T16:09:23.207Z,43.86
2022-08-05T16:11:53.206Z,44.09
2022-08-05T16:14:20.804Z,43.08
2022-08-05T16:16:49.322Z,42.47
2022-08-05T16:19:25.391Z,42.73
2022-08-05T16:22:03.613Z,42.77
2022-08-05T16:24:39.962Z,42.77
2022-08-05T16:27:09.313Z,42.77
2022-08-05T16:29:37.268Z,42.78
2022-08-05T16:32:09.679Z,42.76
2022-08-05T16:34:39.327Z,42.91
2022-08-05T16:38:02.929Z,43.28
2022-08-05T16:40:05.280Z,42.56
2022-08-05T16:42:34.703Z,42.26
2022-08-05T16:45:01.943Z,42.49
2022-08-05T16:47:36.133Z,42.39
2022-08-05T16:50:09.985Z,41.53
2022-08-05T16:52:37.291Z,42.36
2022-08-05T16:55:04.807Z,42.45
2022-08-05T16:57:50.470Z,42.24
2022-08-05T17:00:26.228Z,41.82
2022-08-05T17:03:02.928Z,42.19
2022-08-05T17:05:31.142Z,41.94
2022-08-05T17:07:57.986Z,41.96
2022-08-05T17:10:26.409Z,41.78
2022-08-05T17:12:57.454Z,41.11
2022-08-05T17:15:24.369Z,41.59
2022-08-05T17:17:56.179Z,41.71
2022-08-05T17:20:25.048Z,41.53
2022-08-05T17:22:55.419Z,41.93
2022-08-05T17:25:40.214Z,41.63
2022-08-05T17:28:09.137Z,41.44
2022-08-05T17:30:42.479Z,41.03
2022-08-05T17:33:17.474Z,41.00
2022-08-05T17:36:07.374Z,40.62
2022-08-05T17:38:33.260Z,40.42
2022-08-05T17:40:59.944Z,40.27
2022-08-05T17:43:50.370Z,40.69
2022-08-05T17:46:13.005Z,41.40
2022-08-05T17:48:40.188Z,40.54
2022-08-05T17:51:09.775Z,40.50
2022-08-05T17:53:36.411Z,40.56
2022-08-05T17:56:04.624Z,40.36
2022-08-05T17:58:32.630Z,40.12
2022-08-05T18:00:59.712Z,39.89
2022-08-05T18:03:59.331Z,39.92
2022-08-05T18:06:15.221Z,39.62
2022-08-05T18:08:45.778Z,38.99
2022-08-05T18:11:24.199Z,38.51
2022-08-05T18:14:04.226Z,38.75
2022-08-05T18:18:00.313Z,37.98
2022-08-05T18:20:15.185Z,37.07
2022-08-05T18:22:54.246Z,36.24
2022-08-05T18:25:22.149Z,35.76
2022-08-05T18:27:52.312Z,35.69
2022-08-05T18:30:19.845Z,35.62
2022-08-05T18:32:53.169Z,37.85
2022-08-05T18:35:20.474Z,40.29
2022-08-05T18:38:09.463Z,42.48
2022-08-05T18:41:56.227Z,42.51
2022-08-05T18:43:23.100Z,42.69
2022-08-05T18:45:56.206Z,41.47
2022-08-05T18:48:30.473Z,42.08
2022-08-05T18:52:04.149Z,42.14
2022-08-05T18:54:05.598Z,42.13
2022-08-05T18:56:33.213Z,42.48
2022-08-05T18:59:41.978Z,42.63
2022-08-05T19:01:58.537Z,42.74
2022-08-05T19:04:25.753Z,42.65
2022-08-05T19:06:53.742Z,42.84
2022-08-05T19:09:21.326Z,42.55
2022-08-05T19:12:01.286Z,43.09
2022-08-05T19:14:59.328Z,42.72
2022-08-05T19:17:16.772Z,43.49
2022-08-05T19:19:46.907Z,43.26
2022-08-05T19:22:17.532Z,43.23
2022-08-05T19:24:54.185Z,43.10
2022-08-05T19:27:43.085Z,43.67
2022-08-05T19:30:10.340Z,43.23
2022-08-05T19:32:37.534Z,43.95
2022-08-05T19:35:06.419Z,44.12
2022-08-05T19:37:47.332Z,44.02
2022-08-05T19:40:24.349Z,43.99
2022-08-05T19:43:04.457Z,44.71
2022-08-05T19:45:36.420Z,44.03
2022-08-05T19:48:03.734Z,44.13
2022-08-05T19:50:32.173Z,44.28
2022-08-05T19:53:09.651Z,43.71
2022-08-05T19:56:13.619Z,42.68
2022-08-05T19:58:29.088Z,42.06
2022-08-05T20:00:56.318Z,42.11
2022-08-05T20:03:24.470Z,41.87
2022-08-05T20:05:56.799Z,42.22
2022-08-05T20:08:24.811Z,42.18
2022-08-05T20:10:51.831Z,42.85
2022-08-05T20:13:54.759Z,42.82
2022-08-05T20:16:09.873Z,42.82
2022-08-05T20:18:37.106Z,42.45
2022-08-05T20:21:06.670Z,42.47
2022-08-05T20:23:39.551Z,42.62
2022-08-05T20:26:17.426Z,42.36
2022-08-05T20:28:50.118Z,42.27
2022-08-05T20:31:52.302Z,42.23
2022-08-05T20:34:20.324Z,42.57
2022-08-05T20:36:46.888Z,42.69
2022-08-05T20:39:39.277Z,42.43
2022-08-05T20:42:06.828Z,43.01
2022-08-05T20:44:38.246Z,42.80
2022-08-05T20:47:06.623Z,42.61
2022-08-05T20:49:39.372Z,42.92
2022-08-05T20:52:07.248Z,43.12
2022-08-05T20:54:43.329Z,43.17
2022-08-05T20:57:42.734Z,43.30
2022-08-05T21:00:41.546Z,43.49
2022-08-05T21:03:01.175Z,43.22
2022-08-05T21:05:38.361Z,42.91
2022-08-05T21:08:14.651Z,43.59
2022-08-05T21:10:49.000Z,43.34
2022-08-05T21:13:26.090Z,43.41
2022-08-05T21:16:13.641Z,43.58
2022-08-05T21:18:44.988Z,43.38
2022-08-05T21:21:11.999Z,43.49
2022-08-05T21:23:38.981Z,43.42
2022-08-05T21:26:08.088Z,43.56
2022-08-05T21:28:40.048Z,43.24
2022-08-05T21:31:14.348Z,43.44
2022-08-05T21:33:43.142Z,43.32
2022-08-05T21:36:14.430Z,43.25
2022-08-05T21:38:54.628Z,43.28
2022-08-05T21:41:21.423Z,43.24
2022-08-05T21:44:01.626Z,42.99
2022-08-05T21:46:31.037Z,42.91
2022-08-05T21:48:59.872Z,43.14
2022-08-05T21:52:22.155Z,42.89
2022-08-05T21:54:13.099Z,42.71
2022-08-05T21:56:44.477Z,43.27
2022-08-05T21:59:22.455Z,43.56
